sensor_id;sensor_type;location;lat;lon;timestamp;pressure;altitude;pressure_sealevel;temperature;humidity
10712;BME280;5407;51.234;6.804;2022-08-04T00:00:04;100806.44;;;30.10;39.76
10712;BME280;5407;51.234;6.804;2022-08-04T00:02:42;100810.16;;;30.08;39.96
10712;BME280;5407;51.234;6.804;2022-08-04T00:05:18;100807.97;;;30.11;39.73
10712;BME280;5407;51.234;6.804;2022-08-04T00:07:54;100803.94;;;30.12;39.85
10712;BME280;5407;51.234;6.804;2022-08-04T00:10:25;100805.53;;;30.05;39.70
10712;BME280;5407;51.234;6.804;2022-08-04T00:12:54;100800.59;;;30.00;40.21
10712;BME280;5407;51.234;6.804;2022-08-04T00:15:23;100797.22;;;29.96;39.84
10712;BME280;5407;51.234;6.804;2022-08-04T00:17:54;100789.50;;;29.82;40.24
10712;BME280;5407;51.234;6.804;2022-08-04T00:20:29;100792.00;;;29.80;40.15
10712;BME280;5407;51.234;6.804;2022-08-04T00:22:56;100790.63;;;29.75;40.67
10712;BME280;5407;51.234;6.804;2022-08-04T00:25:25;100798.00;;;29.87;40.42
10712;BME280;5407;51.234;6.804;2022-08-04T00:27:52;100796.91;;;29.94;40.26
10712;BME280;5407;51.234;6.804;2022-08-04T00:30:20;100789.00;;;29.92;40.32
10712;BME280;5407;51.234;6.804;2022-08-04T00:32:48;100792.88;;;29.95;40.23
10712;BME280;5407;51.234;6.804;2022-08-04T00:35:16;100786.69;;;29.91;40.27
10712;BME280;5407;51.234;6.804;2022-08-04T00:37:43;100787.31;;;29.95;40.05
10712;BME280;5407;51.234;6.804;2022-08-04T00:40:22;100774.66;;;29.94;40.59
10712;BME280;5407;51.234;6.804;2022-08-04T00:42:55;100774.66;;;29.94;40.08
10712;BME280;5407;51.234;6.804;2022-08-04T00:45:55;100768.44;;;29.99;40.02
10712;BME280;5407;51.234;6.804;2022-08-04T00:48:44;100769.38;;;30.05;39.74
10712;BME280;5407;51.234;6.804;2022-08-04T00:51:18;100767.81;;;30.04;40.16
10712;BME280;5407;51.234;6.804;2022-08-04T00:53:58;100774.63;;;30.03;39.60
10712;BME280;5407;51.234;6.804;2022-08-04T00:56:42;100763.97;;;30.01;39.77
10712;BME280;5407;51.234;6.804;2022-08-04T00:59:20;100761.78;;;29.96;40.00
10712;BME280;5407;51.234;6.804;2022-08-04T01:01:58;100764.03;;;30.15;39.77
10712;BME280;5407;51.234;6.804;2022-08-04T01:04:43;100761.91;;;30.10;39.73
10712;BME280;5407;51.234;6.804;2022-08-04T01:07:29;100764.56;;;30.05;39.56
10712;BME280;5407;51.234;6.804;2022-08-04T01:10:03;100759.78;;;30.06;39.80
10712;BME280;5407;51.234;6.804;2022-08-04T01:12:57;100756.41;;;30.02;39.82
10712;BME280;5407;51.234;6.804;2022-08-04T01:15:35;100750.34;;;30.03;39.69
10712;BME280;5407;51.234;6.804;2022-08-04T01:18:06;100744.94;;;30.00;39.71
10712;BME280;5407;51.234;6.804;2022-08-04T01:20:41;100743.25;;;30.02;39.71
10712;BME280;5407;51.234;6.804;2022-08-04T01:26:47;100740.63;;;29.99;39.76
10712;BME280;5407;51.234;6.804;2022-08-04T01:29:20;100732.91;;;30.03;39.43
10712;BME280;5407;51.234;6.804;2022-08-04T01:31:56;100728.56;;;30.02;39.81
10712;BME280;5407;51.234;6.804;2022-08-04T01:34:29;100732.91;;;30.03;39.94
10712;BME280;5407;51.234;6.804;2022-08-04T01:37:08;100733.66;;;30.03;39.52
10712;BME280;5407;51.234;6.804;2022-08-04T01:39:41;100726.38;;;30.06;39.57
10712;BME280;5407;51.234;6.804;2022-08-04T01:42:17;100732.41;;;30.04;39.53
10712;BME280;5407;51.234;6.804;2022-08-04T01:44:49;100724.25;;;30.01;39.74
10712;BME280;5407;51.234;6.804;2022-08-04T01:47:18;100719.44;;;30.01;39.88
10712;BME280;5407;51.234;6.804;2022-08-04T01:49:49;100729.63;;;30.04;39.90
10712;BME280;5407;51.234;6.804;2022-08-04T01:52:17;100727.16;;;29.97;40.01
10712;BME280;5407;51.234;6.804;2022-08-04T01:54:45;100733.22;;;29.96;40.02
10712;BME280;5407;51.234;6.804;2022-08-04T01:57:16;100729.50;;;29.99;39.68
10712;BME280;5407;51.234;6.804;2022-08-04T01:59:44;100735.38;;;29.92;40.02
10712;BME280;5407;51.234;6.804;2022-08-04T02:02:14;100741.25;;;29.94;39.95
10712;BME280;5407;51.234;6.804;2022-08-04T02:04:41;100739.25;;;29.94;39.76
10712;BME280;5407;51.234;6.804;2022-08-04T02:07:18;100734.91;;;29.93;39.91
10712;BME280;5407;51.234;6.804;2022-08-04T02:09:56;100740.31;;;29.97;39.72
10712;BME280;5407;51.234;6.804;2022-08-04T02:12:37;100733.22;;;29.96;39.85
10712;BME280;5407;51.234;6.804;2022-08-04T02:15:13;100725.34;;;29.94;39.88
10712;BME280;5407;51.234;6.804;2022-08-04T02:17:53;100724.56;;;29.94;40.11
10712;BME280;5407;51.234;6.804;2022-08-04T02:20:24;100721.47;;;29.92;40.15
10712;BME280;5407;51.234;6.804;2022-08-04T02:22:55;100727.50;;;29.90;40.05
10712;BME280;5407;51.234;6.804;2022-08-04T02:25:25;100724.59;;;29.85;40.27
10712;BME280;5407;51.234;6.804;2022-08-04T02:28:13;100721.06;;;29.84;40.28
10712;BME280;5407;51.234;6.804;2022-08-04T02:30:49;100724.28;;;29.83;40.19
10712;BME280;5407;51.234;6.804;2022-08-04T02:33:25;100723.94;;;29.90;40.19
10712;BME280;5407;51.234;6.804;2022-08-04T02:35:58;100728.91;;;29.86;40.10
10712;BME280;5407;51.234;6.804;2022-08-04T02:38:34;100719.09;;;29.76;40.33
10712;BME280;5407;51.234;6.804;2022-08-04T02:41:08;100715.53;;;29.75;40.37
10712;BME280;5407;51.234;6.804;2022-08-04T02:43:35;100715.84;;;29.77;40.39
10712;BME280;5407;51.234;6.804;2022-08-04T02:46:05;100724.03;;;29.72;40.77
10712;BME280;5407;51.234;6.804;2022-08-04T02:48:33;100721.41;;;29.68;40.67
10712;BME280;5407;51.234;6.804;2022-08-04T02:51:01;100717.53;;;29.75;40.52
10712;BME280;5407;51.234;6.804;2022-08-04T02:53:29;100716.78;;;29.74;40.47
10712;BME280;5407;51.234;6.804;2022-08-04T02:56:00;100709.69;;;29.73;40.64
10712;BME280;5407;51.234;6.804;2022-08-04T02:58:30;100712.56;;;29.79;40.70
10712;BME280;5407;51.234;6.804;2022-08-04T03:01:00;100713.34;;;29.79;40.70
10712;BME280;5407;51.234;6.804;2022-08-04T03:03:34;100699.31;;;29.74;40.83
10712;BME280;5407;51.234;6.804;2022-08-04T03:06:27;100699.66;;;29.67;40.66
10712;BME280;5407;51.234;6.804;2022-08-04T03:12:31;100698.41;;;29.68;40.71
10712;BME280;5407;51.234;6.804;2022-08-04T03:18:29;100697.69;;;29.58;40.99
10712;BME280;5407;51.234;6.804;2022-08-04T03:24:29;100690.13;;;29.59;41.06
10712;BME280;5407;51.234;6.804;2022-08-04T03:30:10;100696.97;;;29.49;41.19
10712;BME280;5407;51.234;6.804;2022-08-04T03:39:01;100700.34;;;29.44;41.66
10712;BME280;5407;51.234;6.804;2022-08-04T03:41:47;100699.44;;;29.47;41.23
10712;BME280;5407;51.234;6.804;2022-08-04T03:45:06;100695.09;;;29.46;41.26
10712;BME280;5407;51.234;6.804;2022-08-04T03:48:12;100691.25;;;29.43;41.70
10712;BME280;5407;51.234;6.804;2022-08-04T03:50:56;100698.50;;;29.41;41.52
10712;BME280;5407;51.234;6.804;2022-08-04T03:54:01;100690.44;;;29.43;41.61
10712;BME280;5407;51.234;6.804;2022-08-04T03:57:02;100690.97;;;29.32;41.59
10712;BME280;5407;51.234;6.804;2022-08-04T03:59:55;100692.50;;;29.33;41.46
10712;BME280;5407;51.234;6.804;2022-08-04T04:05:54;100692.31;;;29.37;41.78
10712;BME280;5407;51.234;6.804;2022-08-04T04:08:42;100695.44;;;29.30;41.76
10712;BME280;5407;51.234;6.804;2022-08-04T04:11:26;100699.00;;;29.30;41.90
10712;BME280;5407;51.234;6.804;2022-08-04T04:14:11;100691.44;;;29.31;41.98
10712;BME280;5407;51.234;6.804;2022-08-04T04:17:03;100692.81;;;29.44;41.67
10712;BME280;5407;51.234;6.804;2022-08-04T04:23:05;100688.63;;;29.49;41.52
10712;BME280;5407;51.234;6.804;2022-08-04T04:25:48;100685.56;;;29.47;41.54
10712;BME280;5407;51.234;6.804;2022-08-04T04:28:37;100693.72;;;29.41;41.83
10712;BME280;5407;51.234;6.804;2022-08-04T04:31:24;100691.38;;;29.40;41.61
10712;BME280;5407;51.234;6.804;2022-08-04T04:34:07;100698.78;;;29.43;41.61
10712;BME280;5407;51.234;6.804;2022-08-04T04:36:42;100694.47;;;29.42;41.71
10712;BME280;5407;51.234;6.804;2022-08-04T04:39:19;100701.56;;;29.43;41.66
10712;BME280;5407;51.234;6.804;2022-08-04T04:42:05;100707.00;;;29.46;42.00
10712;BME280;5407;51.234;6.804;2022-08-04T04:45:02;100710.38;;;29.50;41.64
10712;BME280;5407;51.234;6.804;2022-08-04T04:47:54;100704.06;;;29.50;41.87
10712;BME280;5407;51.234;6.804;2022-08-04T04:50:27;100704.38;;;29.52;41.95
10712;BME280;5407;51.234;6.804;2022-08-04T04:53:05;100709.94;;;29.52;41.75
10712;BME280;5407;51.234;6.804;2022-08-04T04:55:41;100706.38;;;29.51;41.74
10712;BME280;5407;51.234;6.804;2022-08-04T04:58:13;100702.53;;;29.49;42.06
10712;BME280;5407;51.234;6.804;2022-08-04T05:01:06;100705.28;;;29.40;42.26
10712;BME280;5407;51.234;6.804;2022-08-04T05:03:55;100703.44;;;29.37;42.37
10712;BME280;5407;51.234;6.804;2022-08-04T05:06:38;100717.03;;;29.35;42.29
10712;BME280;5407;51.234;6.804;2022-08-04T05:09:26;100709.94;;;29.34;42.26
10712;BME280;5407;51.234;6.804;2022-08-04T05:12:25;100713.34;;;29.29;42.32
10712;BME280;5407;51.234;6.804;2022-08-04T05:14:59;100712.75;;;29.25;42.34
10712;BME280;5407;51.234;6.804;2022-08-04T05:17:32;100714.16;;;29.20;42.22
10712;BME280;5407;51.234;6.804;2022-08-04T05:20:06;100715.53;;;29.25;42.27
10712;BME280;5407;51.234;6.804;2022-08-04T05:22:36;100708.75;;;29.26;42.32
10712;BME280;5407;51.234;6.804;2022-08-04T05:25:08;100706.75;;;29.26;42.36
10712;BME280;5407;51.234;6.804;2022-08-04T05:27:48;100709.34;;;29.30;41.98
10712;BME280;5407;51.234;6.804;2022-08-04T05:30:17;100714.59;;;29.28;42.01
10712;BME280;5407;51.234;6.804;2022-08-04T05:32:49;100716.28;;;29.34;42.38
10712;BME280;5407;51.234;6.804;2022-08-04T05:35:26;100715.81;;;29.36;42.06
10712;BME280;5407;51.234;6.804;2022-08-04T05:37:55;100723.22;;;29.39;42.00
10712;BME280;5407;51.234;6.804;2022-08-04T05:40:24;100718.25;;;29.43;42.36
10712;BME280;5407;51.234;6.804;2022-08-04T05:42:52;100722.00;;;29.49;41.76
10712;BME280;5407;51.234;6.804;2022-08-04T05:45:21;100714.41;;;29.49;41.66
10712;BME280;5407;51.234;6.804;2022-08-04T05:47:51;100723.53;;;29.50;42.02
10712;BME280;5407;51.234;6.804;2022-08-04T05:50:18;100725.81;;;29.51;41.54
10712;BME280;5407;51.234;6.804;2022-08-04T05:52:46;100718.28;;;29.52;42.00
10712;BME280;5407;51.234;6.804;2022-08-04T05:55:15;100718.56;;;29.54;41.62
10712;BME280;5407;51.234;6.804;2022-08-04T05:57:44;100721.66;;;29.56;41.95
10712;BME280;5407;51.234;6.804;2022-08-04T06:00:14;100711.28;;;29.56;41.98
10712;BME280;5407;51.234;6.804;2022-08-04T06:02:43;100713.31;;;29.56;42.11
10712;BME280;5407;51.234;6.804;2022-08-04T06:05:14;100713.94;;;29.51;42.00
10712;BME280;5407;51.234;6.804;2022-08-04T06:07:43;100711.78;;;29.46;41.77
10712;BME280;5407;51.234;6.804;2022-08-04T06:10:10;100710.88;;;29.49;42.07
10712;BME280;5407;51.234;6.804;2022-08-04T06:12:42;100707.91;;;29.52;41.97
10712;BME280;5407;51.234;6.804;2022-08-04T06:15:15;100711.16;;;29.51;41.74
10712;BME280;5407;51.234;6.804;2022-08-04T06:17:48;100709.00;;;29.55;41.67
10712;BME280;5407;51.234;6.804;2022-08-04T06:20:18;100707.25;;;29.57;41.71
10712;BME280;5407;51.234;6.804;2022-08-04T06:22:51;100713.59;;;29.58;41.54
10712;BME280;5407;51.234;6.804;2022-08-04T06:25:20;100711.88;;;29.60;41.56
10712;BME280;5407;51.234;6.804;2022-08-04T06:27:48;100700.59;;;29.64;41.38
10712;BME280;5407;51.234;6.804;2022-08-04T06:30:16;100709.25;;;29.66;41.39
10712;BME280;5407;51.234;6.804;2022-08-04T06:32:44;100708.59;;;29.71;41.38
10712;BME280;5407;51.234;6.804;2022-08-04T06:35:23;100705.53;;;29.69;41.14
10712;BME280;5407;51.234;6.804;2022-08-04T06:37:51;100712.75;;;29.75;40.89
10712;BME280;5407;51.234;6.804;2022-08-04T06:40:20;100712.56;;;29.79;40.97
10712;BME280;5407;51.234;6.804;2022-08-04T06:42:48;100709.16;;;29.84;40.89
10712;BME280;5407;51.234;6.804;2022-08-04T06:45:15;100711.63;;;29.82;40.96
10712;BME280;5407;51.234;6.804;2022-08-04T06:47:44;100713.66;;;29.81;41.06
10712;BME280;5407;51.234;6.804;2022-08-04T06:50:12;100706.72;;;29.77;40.58
10712;BME280;5407;51.234;6.804;2022-08-04T06:52:43;100709.63;;;29.82;40.88
10712;BME280;5407;51.234;6.804;2022-08-04T06:55:11;100692.16;;;29.82;40.72
10712;BME280;5407;51.234;6.804;2022-08-04T06:57:39;100693.69;;;29.83;40.73
10712;BME280;5407;51.234;6.804;2022-08-04T07:00:10;100695.25;;;29.84;40.31
10712;BME280;5407;51.234;6.804;2022-08-04T07:02:41;100699.56;;;29.85;40.32
10712;BME280;5407;51.234;6.804;2022-08-04T07:05:10;100708.19;;;29.87;40.30
10712;BME280;5407;51.234;6.804;2022-08-04T07:07:38;100704.78;;;29.92;40.26
10712;BME280;5407;51.234;6.804;2022-08-04T07:10:08;100710.34;;;29.92;40.50
10712;BME280;5407;51.234;6.804;2022-08-04T07:12:37;100712.50;;;29.97;40.12
10712;BME280;5407;51.234;6.804;2022-08-04T07:15:06;100710.97;;;29.96;39.99
10712;BME280;5407;51.234;6.804;2022-08-04T07:17:34;100711.13;;;29.92;39.99
10712;BME280;5407;51.234;6.804;2022-08-04T07:20:02;100711.56;;;29.91;39.55
10712;BME280;5407;51.234;6.804;2022-08-04T07:22:29;100709.75;;;29.88;39.51
10712;BME280;5407;51.234;6.804;2022-08-04T07:24:57;100704.91;;;29.97;39.68
10712;BME280;5407;51.234;6.804;2022-08-04T07:27:26;100704.16;;;29.97;39.62
10712;BME280;5407;51.234;6.804;2022-08-04T07:29:53;100708.94;;;29.96;39.63
10712;BME280;5407;51.234;6.804;2022-08-04T07:32:21;100707.56;;;30.01;39.55
10712;BME280;5407;51.234;6.804;2022-08-04T07:34:49;100708.94;;;29.96;39.68
10712;BME280;5407;51.234;6.804;2022-08-04T07:37:16;100711.56;;;30.00;39.57
10712;BME280;5407;51.234;6.804;2022-08-04T07:39:44;100706.31;;;30.02;39.88
10712;BME280;5407;51.234;6.804;2022-08-04T07:42:11;100706.63;;;30.04;39.61
10712;BME280;5407;51.234;6.804;2022-08-04T07:44:40;100712.78;;;30.08;39.49
10712;BME280;5407;51.234;6.804;2022-08-04T07:47:07;100710.00;;;30.08;39.95
10712;BME280;5407;51.234;6.804;2022-08-04T07:49:34;100710.56;;;30.11;39.39
10712;BME280;5407;51.234;6.804;2022-08-04T07:52:02;100707.97;;;30.08;39.83
10712;BME280;5407;51.234;6.804;2022-08-04T07:54:29;100718.13;;;30.11;39.55
10712;BME280;5407;51.234;6.804;2022-08-04T07:56:57;100717.38;;;30.10;39.61
10712;BME280;5407;51.234;6.804;2022-08-04T07:59:24;100709.03;;;30.10;39.90
10712;BME280;5407;51.234;6.804;2022-08-04T08:01:52;100710.09;;;30.13;39.56
10712;BME280;5407;51.234;6.804;2022-08-04T08:04:20;100717.19;;;30.14;39.48
10712;BME280;5407;51.234;6.804;2022-08-04T08:06:48;100707.44;;;30.18;39.35
10712;BME280;5407;51.234;6.804;2022-08-04T08:09:18;100709.84;;;30.25;39.50
10712;BME280;5407;51.234;6.804;2022-08-04T08:11:47;100703.94;;;30.32;39.59
10712;BME280;5407;51.234;6.804;2022-08-04T08:14:14;100698.19;;;30.36;39.21
10712;BME280;5407;51.234;6.804;2022-08-04T08:16:41;100708.25;;;30.33;39.49
10712;BME280;5407;51.234;6.804;2022-08-04T08:19:10;100703.47;;;30.34;39.28
10712;BME280;5407;51.234;6.804;2022-08-04T08:21:37;100702.97;;;30.35;39.58
10712;BME280;5407;51.234;6.804;2022-08-04T08:24:04;100690.59;;;30.36;39.44
10712;BME280;5407;51.234;6.804;2022-08-04T08:26:32;100700.19;;;30.35;39.26
10712;BME280;5407;51.234;6.804;2022-08-04T08:29:01;100690.44;;;30.40;39.56
10712;BME280;5407;51.234;6.804;2022-08-04T08:31:28;100690.59;;;30.36;39.54
10712;BME280;5407;51.234;6.804;2022-08-04T08:33:56;100693.50;;;30.42;39.30
10712;BME280;5407;51.234;6.804;2022-08-04T08:36:33;100687.47;;;30.43;39.26
10712;BME280;5407;51.234;6.804;2022-08-04T08:39:04;100687.47;;;30.43;39.39
10712;BME280;5407;51.234;6.804;2022-08-04T08:41:54;100693.66;;;30.38;39.31
10712;BME280;5407;51.234;6.804;2022-08-04T08:44:55;100695.81;;;30.43;38.72
10712;BME280;5407;51.234;6.804;2022-08-04T08:47:45;100690.84;;;30.47;39.17
10712;BME280;5407;51.234;6.804;2022-08-04T08:50:40;100689.59;;;30.48;39.63
10712;BME280;5407;51.234;6.804;2022-08-04T08:56:25;100700.06;;;30.53;39.37
10712;BME280;5407;51.234;6.804;2022-08-04T08:59:26;100696.66;;;30.58;39.04
10712;BME280;5407;51.234;6.804;2022-08-04T09:02:16;100702.69;;;30.57;39.13
10712;BME280;5407;51.234;6.804;2022-08-04T09:04:57;100696.03;;;30.54;39.46
10712;BME280;5407;51.234;6.804;2022-08-04T09:07:48;100690.63;;;30.51;39.63
10712;BME280;5407;51.234;6.804;2022-08-04T09:10:24;100694.50;;;30.53;39.79
10712;BME280;5407;51.234;6.804;2022-08-04T09:12:55;100701.59;;;30.54;39.77
10712;BME280;5407;51.234;6.804;2022-08-04T09:15:29;100701.59;;;30.54;39.85
10712;BME280;5407;51.234;6.804;2022-08-04T09:18:03;100706.25;;;30.57;39.64
10712;BME280;5407;51.234;6.804;2022-08-04T09:20:37;100696.78;;;30.55;39.68
10712;BME280;5407;51.234;6.804;2022-08-04T09:23:13;100695.09;;;30.57;39.74
10712;BME280;5407;51.234;6.804;2022-08-04T09:25:50;100703.09;;;30.64;39.53
10712;BME280;5407;51.234;6.804;2022-08-04T09:28:23;100706.66;;;30.65;39.38
10712;BME280;5407;51.234;6.804;2022-08-04T09:30:56;100704.16;;;30.67;39.45
10712;BME280;5407;51.234;6.804;2022-08-04T09:33:33;100703.97;;;30.70;39.51
10712;BME280;5407;51.234;6.804;2022-08-04T09:36:12;100714.16;;;30.73;39.28
10712;BME280;5407;51.234;6.804;2022-08-04T09:38:45;100711.38;;;30.73;39.41
10712;BME280;5407;51.234;6.804;2022-08-04T09:41:25;100708.00;;;30.69;39.37
10712;BME280;5407;51.234;6.804;2022-08-04T09:44:00;100703.97;;;30.70;39.44
10712;BME280;5407;51.234;6.804;2022-08-04T09:46:38;100703.22;;;30.70;39.57
10712;BME280;5407;51.234;6.804;2022-08-04T09:49:11;100698.97;;;30.74;39.14
10712;BME280;5407;51.234;6.804;2022-08-04T09:51:52;100704.75;;;30.71;39.28
10712;BME280;5407;51.234;6.804;2022-08-04T09:54:27;100713.09;;;30.71;38.93
10712;BME280;5407;51.234;6.804;2022-08-04T09:57:08;100713.56;;;30.69;38.86
10712;BME280;5407;51.234;6.804;2022-08-04T09:59:42;100716.06;;;30.67;38.83
10712;BME280;5407;51.234;6.804;2022-08-04T10:02:12;100718.38;;;30.69;38.75
10712;BME280;5407;51.234;6.804;2022-08-04T10:04:42;100712.31;;;30.70;38.71
10712;BME280;5407;51.234;6.804;2022-08-04T10:07:22;100715.03;;;30.65;38.77
10712;BME280;5407;51.234;6.804;2022-08-04T10:09:59;100723.47;;;30.70;38.78
10712;BME280;5407;51.234;6.804;2022-08-04T10:12:34;100726.53;;;30.72;38.77
10712;BME280;5407;51.234;6.804;2022-08-04T10:15:09;100713.84;;;30.71;38.86
10712;BME280;5407;51.234;6.804;2022-08-04T10:18:07;100720.59;;;30.65;39.00
10712;BME280;5407;51.234;6.804;2022-08-04T10:20:56;100726.81;;;30.74;38.93
10712;BME280;5407;51.234;6.804;2022-08-04T10:23:35;100724.63;;;30.78;38.88
10712;BME280;5407;51.234;6.804;2022-08-04T10:26:19;100728.38;;;30.75;38.82
10712;BME280;5407;51.234;6.804;2022-08-04T10:28:57;100729.91;;;30.76;38.87
10712;BME280;5407;51.234;6.804;2022-08-04T10:31:29;100737.59;;;30.81;38.71
10712;BME280;5407;51.234;6.804;2022-08-04T10:34:01;100735.72;;;30.87;38.41
10712;BME280;5407;51.234;6.804;2022-08-04T10:36:38;100734.81;;;30.81;38.30
10712;BME280;5407;51.234;6.804;2022-08-04T10:39:11;100730.50;;;30.80;38.49
10712;BME280;5407;51.234;6.804;2022-08-04T10:41:49;100730.44;;;30.89;38.70
10712;BME280;5407;51.234;6.804;2022-08-04T10:44:27;100730.34;;;30.98;38.51
10712;BME280;5407;51.234;6.804;2022-08-04T10:47:01;100742.63;;;31.06;38.33
10712;BME280;5407;51.234;6.804;2022-08-04T10:49:33;100737.69;;;31.10;38.51
10712;BME280;5407;51.234;6.804;2022-08-04T10:52:06;100750.94;;;31.15;38.46
10712;BME280;5407;51.234;6.804;2022-08-04T10:54:40;100747.41;;;31.15;38.44
10712;BME280;5407;51.234;6.804;2022-08-04T10:57:16;100745.38;;;31.15;38.44
10712;BME280;5407;51.234;6.804;2022-08-04T10:59:53;100751.72;;;31.16;38.10
10712;BME280;5407;51.234;6.804;2022-08-04T11:02:33;100745.66;;;31.17;38.03
10712;BME280;5407;51.234;6.804;2022-08-04T11:05:11;100739.00;;;31.29;36.39
10712;BME280;5407;51.234;6.804;2022-08-04T11:07:43;100732.19;;;31.30;37.48
10712;BME280;5407;51.234;6.804;2022-08-04T11:10:11;100734.03;;;31.33;37.29
10712;BME280;5407;51.234;6.804;2022-08-04T11:12:41;100734.63;;;31.37;37.04
10712;BME280;5407;51.234;6.804;2022-08-04T11:15:17;100748.84;;;31.39;37.35
10712;BME280;5407;51.234;6.804;2022-08-04T11:17:51;100744.50;;;31.38;37.65
10712;BME280;5407;51.234;6.804;2022-08-04T11:20:24;100742.28;;;31.42;37.70
10712;BME280;5407;51.234;6.804;2022-08-04T11:23:02;100756.53;;;31.44;37.70
10712;BME280;5407;51.234;6.804;2022-08-04T11:25:34;100761.81;;;31.42;37.94
10712;BME280;5407;51.234;6.804;2022-08-04T11:28:05;100759.03;;;31.42;37.67
10712;BME280;5407;51.234;6.804;2022-08-04T11:30:40;100756.25;;;31.42;37.81
10712;BME280;5407;51.234;6.804;2022-08-04T11:33:19;100749.59;;;31.40;37.94
10712;BME280;5407;51.234;6.804;2022-08-04T11:35:54;100754.81;;;31.32;38.22
10712;BME280;5407;51.234;6.804;2022-08-04T11:38:27;100756.34;;;31.33;38.55
10712;BME280;5407;51.234;6.804;2022-08-04T11:41:01;100776.91;;;31.36;38.57
10712;BME280;5407;51.234;6.804;2022-08-04T11:43:34;100782.75;;;31.38;39.08
10712;BME280;5407;51.234;6.804;2022-08-04T11:46:08;100788.06;;;31.36;39.03
10712;BME280;5407;51.234;6.804;2022-08-04T11:48:44;100784.81;;;31.37;39.12
10712;BME280;5407;51.234;6.804;2022-08-04T11:51:16;100778.94;;;31.35;39.04
10712;BME280;5407;51.234;6.804;2022-08-04T11:53:45;100777.41;;;31.34;39.05
10712;BME280;5407;51.234;6.804;2022-08-04T11:56:14;100776.16;;;31.35;39.23
10712;BME280;5407;51.234;6.804;2022-08-04T11:58:42;100787.31;;;31.35;39.32
10712;BME280;5407;51.234;6.804;2022-08-04T12:01:18;100784.50;;;31.35;39.68
10712;BME280;5407;51.234;6.804;2022-08-04T12:03:59;100788.16;;;31.41;39.84
10712;BME280;5407;51.234;6.804;2022-08-04T12:06:31;100781.06;;;31.40;39.42
10712;BME280;5407;51.234;6.804;2022-08-04T12:09:07;100783.63;;;31.44;39.30
10712;BME280;5407;51.234;6.804;2022-08-04T12:12:01;100786.25;;;31.47;38.91
10712;BME280;5407;51.234;6.804;2022-08-04T12:14:43;100785.75;;;31.49;39.18
10712;BME280;5407;51.234;6.804;2022-08-04T12:17:21;100792.09;;;31.49;39.02
10712;BME280;5407;51.234;6.804;2022-08-04T12:19:54;100785.75;;;31.49;39.24
10712;BME280;5407;51.234;6.804;2022-08-04T12:22:23;100777.00;;;31.41;39.42
10712;BME280;5407;51.234;6.804;2022-08-04T12:24:53;100785.75;;;31.34;39.35
10712;BME280;5407;51.234;6.804;2022-08-04T12:27:28;100776.16;;;31.35;39.16
10712;BME280;5407;51.234;6.804;2022-08-04T12:29:57;100782.69;;;31.32;39.24
10712;BME280;5407;51.234;6.804;2022-08-04T12:32:33;100785.75;;;31.34;39.28
10712;BME280;5407;51.234;6.804;2022-08-04T12:35:11;100787.31;;;31.35;39.19
10712;BME280;5407;51.234;6.804;2022-08-04T12:37:47;100785.16;;;31.30;39.32
10712;BME280;5407;51.234;6.804;2022-08-04T12:40:22;100793.22;;;31.28;39.40
10712;BME280;5407;51.234;6.804;2022-08-04T12:42:55;100794.19;;;31.25;39.45
10712;BME280;5407;51.234;6.804;2022-08-04T12:45:24;100791.97;;;31.29;39.52
10712;BME280;5407;51.234;6.804;2022-08-04T12:47:56;100796.91;;;31.34;39.53
10712;BME280;5407;51.234;6.804;2022-08-04T12:50:24;100794.13;;;31.34;39.54
10712;BME280;5407;51.234;6.804;2022-08-04T12:52:53;100798.47;;;31.35;39.69
10712;BME280;5407;51.234;6.804;2022-08-04T12:55:24;100790.28;;;31.32;39.72
10712;BME280;5407;51.234;6.804;2022-08-04T12:57:54;100790.00;;;31.44;39.57
10712;BME280;5407;51.234;6.804;2022-08-04T13:00:24;100790.38;;;31.37;39.49
10712;BME280;5407;51.234;6.804;2022-08-04T13:02:58;100790.09;;;31.35;39.90
10712;BME280;5407;51.234;6.804;2022-08-04T13:05:28;100781.63;;;31.44;39.63
10712;BME280;5407;51.234;6.804;2022-08-04T13:07:57;100780.75;;;31.53;39.69
10712;BME280;5407;51.234;6.804;2022-08-04T13:10:27;100780.28;;;31.54;39.92
10712;BME280;5407;51.234;6.804;2022-08-04T13:12:56;100775.94;;;31.53;39.81
10712;BME280;5407;51.234;6.804;2022-08-04T13:15:25;100785.84;;;31.54;39.67
10712;BME280;5407;51.234;6.804;2022-08-04T13:17:57;100777.66;;;31.51;39.92
10712;BME280;5407;51.234;6.804;2022-08-04T13:20:27;100785.28;;;31.50;39.73
10712;BME280;5407;51.234;6.804;2022-08-04T13:22:59;100777.47;;;31.54;39.54
10712;BME280;5407;51.234;6.804;2022-08-04T13:25:29;100777.47;;;31.54;39.59
10712;BME280;5407;51.234;6.804;2022-08-04T13:27:58;100775.25;;;31.58;39.42
10712;BME280;5407;51.234;6.804;2022-08-04T13:30:27;100769.41;;;31.56;39.53
10712;BME280;5407;51.234;6.804;2022-08-04T13:33:01;100778.06;;;31.58;39.53
10712;BME280;5407;51.234;6.804;2022-08-04T13:35:29;100771.72;;;31.58;39.24
10712;BME280;5407;51.234;6.804;2022-08-04T13:37:59;100762.56;;;31.57;39.40
10712;BME280;5407;51.234;6.804;2022-08-04T13:40:27;100767.78;;;31.64;39.45
10712;BME280;5407;51.234;6.804;2022-08-04T13:42:55;100775.19;;;31.67;38.15
10712;BME280;5407;51.234;6.804;2022-08-04T13:45:24;100780.75;;;31.67;38.07
10712;BME280;5407;51.234;6.804;2022-08-04T13:47:58;100771.06;;;31.63;38.26
10712;BME280;5407;51.234;6.804;2022-08-04T13:50:28;100774.78;;;31.60;38.77
10712;BME280;5407;51.234;6.804;2022-08-04T13:52:57;100765.34;;;31.57;38.93
10712;BME280;5407;51.234;6.804;2022-08-04T13:55:26;100769.97;;;31.60;39.04
10712;BME280;5407;51.234;6.804;2022-08-04T13:58:04;100766.31;;;31.54;39.37
10712;BME280;5407;51.234;6.804;2022-08-04T14:00:43;100762.28;;;31.55;39.75
10712;BME280;5407;51.234;6.804;2022-08-04T14:03:21;100765.06;;;31.55;39.61
10712;BME280;5407;51.234;6.804;2022-08-04T14:06:13;100762.47;;;31.52;40.04
10712;BME280;5407;51.234;6.804;2022-08-04T14:08:45;100768.06;;;31.37;40.04
10712;BME280;5407;51.234;6.804;2022-08-04T14:11:13;100765.34;;;31.28;40.07